Error in Current Weather Conditions

Having problems? Perhaps others have had similar issues. Post HydroFLASH technical issues here.

Error in Current Weather Conditions

Postby RockyJ » Mon Jan 07, 2019 1:29 am

Does anyone else get this conversion error?

FELTS FIELD, WA, United States (KSFF) 47-41N 117-19W 609M
Jan 06, 2019 - 07:53 PM EST / 2019.01.07 0053 UTC
Wind: from the SSW (210 degrees) at 7 MPH (6 KT):0
Visibility: 10 mile(s):0
Sky conditions: overcast
Temperature: 39.9 F (4.4 C)
Dew Point: 28.0 F (-2.2 C)
Relative Humidity: 62%
Pressure (altimeter): 29.56 in. Hg (1001 hPa)
ob: KSFF 070053Z 21006KT 10SM SCT039 OVC110 04/M02 A2956 RMK AO2 SLP015 T00441022
cycle: 1
RockyJ
 
Posts: 9
Joined: Mon Dec 01, 2014 2:28 pm
HydroFLASH Type: HydroFLASH Wired Version
Mobile App Type: iPhone
Insteon Devices: Yes

Return to Bug Reports

Who is online

Users browsing this forum: No registered users and 1 guest

cron